Time;durP1;ratioP1;P1;durP2;ratioP2;P2;SDS_P1;SDS_P2;PMS_P1;PMS_P2;Temp;Humidity;BMP_temperature;BMP_pressure;BME280_temperature;BME280_humidity;BME280_pressure;Samples;Min_cycle;Max_cycle;Signal;HPM_P1;HPM_P2
2021/06/13 00:00:05;;;;;;;12.20;4.80;;;;;;;;;;748873;186;919955;-70
2021/06/13 00:02:31;;;;;;;6.27;5.03;;;;;;;;;;754594;186;919661;-70
2021/06/13 00:04:57;;;;;;;13.90;4.63;;;;;;;;;;750654;186;919076;-70
2021/06/13 00:07:23;;;;;;;9.83;5.40;;;;;;;;;;758563;183;918482;-69
2021/06/13 00:09:49;;;;;;;6.90;5.30;;;;;;;;;;768111;182;919381;-70
2021/06/13 00:12:14;;;;;;;6.97;5.37;;;;;;;;;;760228;182;918649;-69
2021/06/13 00:14:41;;;;;;;8.98;6.37;;;;;;;;;;759686;182;917413;-69
2021/06/13 00:17:06;;;;;;;6.53;5.40;;;;;;;;;;764818;182;919142;-70
2021/06/13 00:19:32;;;;;;;15.10;6.32;;;;;;;;;;762056;182;919353;-69
2021/06/13 00:21:58;;;;;;;13.60;5.60;;;;;;;;;;758142;182;919595;-70
2021/06/13 00:24:24;;;;;;;12.77;5.13;;;;;;;;;;760054;182;940756;-70
2021/06/13 00:26:50;;;;;;;13.13;5.53;;;;;;;;;;766440;182;1044958;-69
2021/06/13 00:29:15;;;;;;;7.80;5.60;;;;;;;;;;761289;182;921143;-69
2021/06/13 00:31:41;;;;;;;6.27;5.00;;;;;;;;;;755867;184;916226;-69
2021/06/13 00:34:07;;;;;;;8.73;5.50;;;;;;;;;;764339;183;914546;-70
2021/06/13 00:36:33;;;;;;;13.07;5.30;;;;;;;;;;755661;183;1021898;-69
2021/06/13 00:38:59;;;;;;;9.40;5.00;;;;;;;;;;757941;183;915957;-70
2021/06/13 00:41:25;;;;;;;9.50;5.93;;;;;;;;;;764868;182;915625;-69
2021/06/13 00:43:50;;;;;;;8.00;5.77;;;;;;;;;;760823;182;919131;-70
2021/06/13 00:46:16;;;;;;;8.20;6.00;;;;;;;;;;760263;182;916230;-70
2021/06/13 00:48:42;;;;;;;8.27;6.63;;;;;;;;;;759488;182;919345;-69
2021/06/13 00:51:08;;;;;;;9.13;7.23;;;;;;;;;;769902;181;920805;-69
2021/06/13 00:53:34;;;;;;;12.10;6.73;;;;;;;;;;758700;183;923419;-69
2021/06/13 00:56:00;;;;;;;8.57;5.47;;;;;;;;;;759598;182;919718;-69
2021/06/13 00:58:25;;;;;;;7.10;5.97;;;;;;;;;;765009;182;918740;-69
2021/06/13 01:00:51;;;;;;;8.20;6.00;;;;;;;;;;761260;182;919765;-69
2021/06/13 01:03:17;;;;;;;8.70;6.03;;;;;;;;;;756884;183;922612;-69
2021/06/13 01:05:43;;;;;;;7.73;6.50;;;;;;;;;;762218;183;917468;-69
2021/06/13 01:08:09;;;;;;;12.00;7.13;;;;;;;;;;760048;183;920713;-70
2021/06/13 01:10:35;;;;;;;9.18;6.40;;;;;;;;;;757449;184;918293;-69
2021/06/13 01:13:19;;;;;;;14.17;7.00;;;;;;;;;;764361;183;919581;-69
2021/06/13 01:15:45;;;;;;;15.18;7.00;;;;;;;;;;754560;183;920620;-70
2021/06/13 01:18:11;;;;;;;10.13;6.50;;;;;;;;;;754264;183;918528;-69
2021/06/13 01:20:38;;;;;;;7.50;6.33;;;;;;;;;;765918;182;919453;-70
2021/06/13 01:23:23;;;;;;;10.23;7.30;;;;;;;;;;760609;182;919703;-70
2021/06/13 01:25:51;;;;;;;10.65;6.90;;;;;;;;;;760022;183;919718;-72
2021/06/13 01:28:35;;;;;;;7.67;6.87;;;;;;;;;;764619;182;919585;-71
2021/06/13 01:31:01;;;;;;;19.67;7.30;;;;;;;;;;763566;183;918863;-70
2021/06/13 01:33:27;;;;;;;10.87;6.90;;;;;;;;;;761179;182;1021231;-70
2021/06/13 01:35:53;;;;;;;10.43;6.17;;;;;;;;;;762442;183;919164;-69
2021/06/13 01:38:19;;;;;;;12.90;6.00;;;;;;;;;;761127;182;918343;-68
2021/06/13 01:40:45;;;;;;;6.43;4.40;;;;;;;;;;763051;182;911407;-68
2021/06/13 01:43:12;;;;;;;8.00;4.80;;;;;;;;;;762113;183;919356;-69
2021/06/13 01:45:36;;;;;;;9.63;4.13;;;;;;;;;;756845;182;922479;-69
2021/06/13 01:48:02;;;;;;;10.57;4.63;;;;;;;;;;764534;182;940584;-69
2021/06/13 01:50:28;;;;;;;8.27;4.50;;;;;;;;;;759046;182;919887;-69
2021/06/13 01:52:54;;;;;;;11.23;3.57;;;;;;;;;;759311;182;919035;-70
2021/06/13 01:55:20;;;;;;;9.38;3.60;;;;;;;;;;759744;183;918153;-71
2021/06/13 01:57:45;;;;;;;10.87;3.87;;;;;;;;;;760880;183;918992;-70
2021/06/13 02:00:12;;;;;;;5.30;3.50;;;;;;;;;;761741;183;919559;-70
2021/06/13 02:02:38;;;;;;;6.97;3.92;;;;;;;;;;762738;183;903670;-70
2021/06/13 02:05:04;;;;;;;6.03;3.50;;;;;;;;;;759399;182;919182;-70
2021/06/13 02:07:30;;;;;;;8.03;3.80;;;;;;;;;;758791;182;919435;-70
2021/06/13 02:09:56;;;;;;;7.37;3.77;;;;;;;;;;759359;182;919538;-70
2021/06/13 02:12:22;;;;;;;8.50;3.90;;;;;;;;;;764176;182;918966;-70
2021/06/13 02:14:48;;;;;;;9.03;3.30;;;;;;;;;;757826;182;945848;-69
2021/06/13 02:17:14;;;;;;;6.00;3.70;;;;;;;;;;758017;182;1019540;-71
2021/06/13 02:19:39;;;;;;;8.80;4.60;;;;;;;;;;765792;183;919260;-69
2021/06/13 02:22:05;;;;;;;5.53;3.20;;;;;;;;;;758176;183;918682;-70
2021/06/13 02:24:31;;;;;;;8.40;3.80;;;;;;;;;;753304;183;919137;-70
2021/06/13 02:26:57;;;;;;;6.40;4.13;;;;;;;;;;764232;182;919353;-70
2021/06/13 02:29:23;;;;;;;7.80;4.13;;;;;;;;;;760664;182;919618;-71
2021/06/13 02:31:49;;;;;;;6.07;4.13;;;;;;;;;;759947;182;930098;-70
2021/06/13 02:34:15;;;;;;;8.75;5.28;;;;;;;;;;761619;182;918802;-70
2021/06/13 02:36:41;;;;;;;9.37;4.20;;;;;;;;;;764553;179;918068;-70
2021/06/13 02:39:07;;;;;;;8.40;3.57;;;;;;;;;;757898;183;919303;-71
2021/06/13 02:41:33;;;;;;;6.60;4.17;;;;;;;;;;761341;182;918885;-70
2021/06/13 02:43:58;;;;;;;12.13;4.03;;;;;;;;;;767653;182;917959;-70
2021/06/13 02:46:24;;;;;;;7.57;4.10;;;;;;;;;;757883;183;918783;-70
2021/06/13 02:48:50;;;;;;;6.63;3.43;;;;;;;;;;756816;183;919246;-71
2021/06/13 02:51:16;;;;;;;6.87;4.50;;;;;;;;;;752234;187;919330;-70
2021/06/13 02:53:43;;;;;;;7.33;4.10;;;;;;;;;;728748;191;933654;-70
2021/06/13 02:56:08;;;;;;;16.00;4.27;;;;;;;;;;727972;190;1021233;-70
2021/06/13 02:58:41;;;;;;;8.68;4.07;;;;;;;;;;739925;187;918805;-70
2021/06/13 03:01:06;;;;;;;5.50;3.40;;;;;;;;;;754258;184;919015;-70
2021/06/13 03:03:32;;;;;;;12.52;4.50;;;;;;;;;;758147;183;919147;-70
2021/06/13 03:05:58;;;;;;;8.63;4.40;;;;;;;;;;755967;183;1005862;-70
2021/06/13 03:08:24;;;;;;;8.47;4.07;;;;;;;;;;766018;182;919787;-70
2021/06/13 03:10:52;;;;;;;5.87;4.27;;;;;;;;;;757126;184;919550;-70
2021/06/13 03:13:15;;;;;;;6.57;4.17;;;;;;;;;;753334;184;925091;-70
2021/06/13 03:15:41;;;;;;;10.47;4.67;;;;;;;;;;758475;184;919410;-70
2021/06/13 03:18:07;;;;;;;10.85;3.87;;;;;;;;;;753828;184;919541;-70
2021/06/13 03:20:33;;;;;;;9.97;4.07;;;;;;;;;;752106;184;922624;-69
2021/06/13 03:22:59;;;;;;;10.03;3.80;;;;;;;;;;759907;183;918282;-70
2021/06/13 03:25:25;;;;;;;7.73;4.20;;;;;;;;;;767516;182;919190;-70
2021/06/13 03:27:50;;;;;;;6.40;4.60;;;;;;;;;;759732;183;919204;-70
2021/06/13 03:30:17;;;;;;;6.82;4.28;;;;;;;;;;760729;182;1031101;-70
2021/06/13 03:32:42;;;;;;;8.30;4.33;;;;;;;;;;769188;182;919174;-69
2021/06/13 03:35:09;;;;;;;13.33;5.13;;;;;;;;;;757730;183;919194;-69
2021/06/13 03:37:35;;;;;;;6.10;4.40;;;;;;;;;;762232;182;918975;-69
2021/06/13 03:40:00;;;;;;;7.07;4.93;;;;;;;;;;766397;182;918961;-69
2021/06/13 03:42:26;;;;;;;7.73;4.30;;;;;;;;;;760136;182;920225;-69
2021/06/13 03:44:52;;;;;;;12.90;4.77;;;;;;;;;;759739;183;919360;-69
2021/06/13 03:47:18;;;;;;;7.10;3.97;;;;;;;;;;760545;182;919635;-69
2021/06/13 03:49:44;;;;;;;7.97;5.40;;;;;;;;;;768543;182;917794;-69
2021/06/13 03:52:10;;;;;;;4.83;3.60;;;;;;;;;;757654;183;1123979;-69
2021/06/13 03:54:35;;;;;;;9.83;3.53;;;;;;;;;;759748;182;920232;-70
2021/06/13 03:57:02;;;;;;;9.93;4.13;;;;;;;;;;765992;182;919326;-69
2021/06/13 03:59:28;;;;;;;8.23;3.90;;;;;;;;;;763999;182;921457;-70
2021/06/13 04:01:54;;;;;;;13.17;4.30;;;;;;;;;;760746;182;1015034;-69
2021/06/13 04:04:20;;;;;;;4.82;3.30;;;;;;;;;;765282;183;917062;-69
2021/06/13 04:06:46;;;;;;;5.70;3.70;;;;;;;;;;757756;183;919183;-70
2021/06/13 04:09:12;;;;;;;8.53;4.93;;;;;;;;;;757472;183;919931;-69
2021/06/13 04:11:39;;;;;;;4.55;3.65;;;;;;;;;;766964;182;915327;-69
2021/06/13 04:14:04;;;;;;;6.53;3.50;;;;;;;;;;760381;183;915169;-69
2021/06/13 04:16:30;;;;;;;7.53;4.20;;;;;;;;;;757092;182;919948;-70
2021/06/13 04:18:57;;;;;;;8.83;3.57;;;;;;;;;;761067;182;919676;-69
2021/06/13 04:21:23;;;;;;;10.13;4.07;;;;;;;;;;767735;182;895415;-70
2021/06/13 04:23:49;;;;;;;7.33;4.03;;;;;;;;;;757413;183;919774;-70
2021/06/13 04:26:15;;;;;;;10.77;4.33;;;;;;;;;;754470;184;1013762;-70
2021/06/13 04:28:41;;;;;;;5.40;3.33;;;;;;;;;;765999;183;918772;-70
2021/06/13 04:31:10;;;;;;;5.63;4.23;;;;;;;;;;760163;183;918957;-70
2021/06/13 04:33:32;;;;;;;4.63;3.60;;;;;;;;;;760025;183;1019550;-69
2021/06/13 04:35:58;;;;;;;5.43;3.13;;;;;;;;;;761453;183;919041;-69
2021/06/13 04:38:24;;;;;;;6.50;3.00;;;;;;;;;;761543;183;919266;-69
2021/06/13 04:40:50;;;;;;;4.77;3.10;;;;;;;;;;761126;181;919354;-69
2021/06/13 04:43:16;;;;;;;4.63;3.73;;;;;;;;;;760798;182;918533;-69
2021/06/13 04:45:41;;;;;;;7.13;3.97;;;;;;;;;;765665;182;919679;-69
2021/06/13 04:48:08;;;;;;;6.40;4.77;;;;;;;;;;758558;183;919368;-70
2021/06/13 04:50:35;;;;;;;5.10;3.53;;;;;;;;;;753674;184;919584;-69
2021/06/13 04:53:00;;;;;;;8.20;3.17;;;;;;;;;;752819;186;919150;-71
2021/06/13 04:55:27;;;;;;;6.07;3.43;;;;;;;;;;760296;182;925534;-70
2021/06/13 04:57:57;;;;;;;4.90;3.20;;;;;;;;;;759768;182;919065;-70
2021/06/13 05:00:22;;;;;;;11.30;3.40;;;;;;;;;;757277;182;919429;-70
2021/06/13 05:02:48;;;;;;;7.80;3.10;;;;;;;;;;762237;183;917085;-70
2021/06/13 05:05:15;;;;;;;4.23;3.20;;;;;;;;;;760272;183;919323;-70
2021/06/13 05:07:41;;;;;;;4.45;3.08;;;;;;;;;;753016;183;1021605;-71
2021/06/13 05:10:07;;;;;;;7.30;3.30;;;;;;;;;;761556;183;912780;-71
2021/06/13 05:12:33;;;;;;;4.70;3.17;;;;;;;;;;754551;183;920490;-71
2021/06/13 05:14:59;;;;;;;6.17;2.43;;;;;;;;;;753325;184;937075;-70
2021/06/13 05:17:24;;;;;;;9.88;5.25;;;;;;;;;;758018;184;913978;-71
2021/06/13 05:19:50;;;;;;;6.70;3.50;;;;;;;;;;750722;184;920306;-71
2021/06/13 05:22:16;;;;;;;4.70;3.40;;;;;;;;;;757700;183;920604;-71
2021/06/13 05:24:42;;;;;;;6.80;3.57;;;;;;;;;;765553;183;813640;-71
2021/06/13 05:27:08;;;;;;;7.80;3.50;;;;;;;;;;759297;182;921427;-71
2021/06/13 05:29:34;;;;;;;12.83;3.53;;;;;;;;;;760263;182;922219;-70
2021/06/13 05:31:59;;;;;;;4.30;2.60;;;;;;;;;;760277;182;919106;-71
2021/06/13 05:34:25;;;;;;;6.73;2.63;;;;;;;;;;768857;182;896843;-71
2021/06/13 05:36:51;;;;;;;5.40;2.83;;;;;;;;;;755422;183;915847;-71
2021/06/13 05:39:17;;;;;;;11.40;3.23;;;;;;;;;;751892;185;915625;-70
2021/06/13 05:41:43;;;;;;;5.23;2.50;;;;;;;;;;762050;183;914816;-71
2021/06/13 05:44:09;;;;;;;5.30;3.73;;;;;;;;;;755705;184;912120;-72
2021/06/13 05:46:35;;;;;;;7.35;2.90;;;;;;;;;;761141;183;912105;-71
2021/06/13 05:49:00;;;;;;;8.60;3.30;;;;;;;;;;766910;183;914688;-71
2021/06/13 05:51:26;;;;;;;8.38;2.72;;;;;;;;;;757069;181;1014559;-71
2021/06/13 05:53:52;;;;;;;4.53;2.63;;;;;;;;;;762301;182;922072;-71
2021/06/13 05:56:18;;;;;;;6.63;3.20;;;;;;;;;;763156;182;914960;-72
2021/06/13 05:58:44;;;;;;;4.60;2.23;;;;;;;;;;764433;183;904156;-71
2021/06/13 06:01:09;;;;;;;22.03;3.97;;;;;;;;;;759623;182;1011880;-72
2021/06/13 06:03:35;;;;;;;8.77;3.10;;;;;;;;;;762601;182;912618;-71
2021/06/13 06:06:01;;;;;;;5.83;3.97;;;;;;;;;;765422;182;916178;-72
2021/06/13 06:08:27;;;;;;;6.83;3.10;;;;;;;;;;758911;182;950355;-72
2021/06/13 06:10:53;;;;;;;5.27;3.00;;;;;;;;;;758966;182;915971;-72
2021/06/13 06:13:19;;;;;;;6.30;3.87;;;;;;;;;;762739;183;917394;-72
2021/06/13 06:15:45;;;;;;;8.70;3.00;;;;;;;;;;765384;183;919762;-71
2021/06/13 06:18:10;;;;;;;13.95;4.10;;;;;;;;;;757790;183;918934;-70
2021/06/13 06:20:36;;;;;;;9.07;3.67;;;;;;;;;;761932;183;931694;-71
2021/06/13 06:23:02;;;;;;;10.23;2.93;;;;;;;;;;762336;182;864900;-70
2021/06/13 06:25:28;;;;;;;6.33;2.83;;;;;;;;;;758992;182;918143;-70
2021/06/13 06:27:54;;;;;;;5.83;3.30;;;;;;;;;;760516;182;921525;-72
2021/06/13 06:30:20;;;;;;;4.13;2.50;;;;;;;;;;764854;182;919313;-71
2021/06/13 06:32:46;;;;;;;6.43;3.47;;;;;;;;;;757403;182;918623;-71
2021/06/13 06:35:13;;;;;;;12.43;3.27;;;;;;;;;;757308;183;920367;-71
2021/06/13 06:37:39;;;;;;;8.50;3.57;;;;;;;;;;766428;182;902376;-70
2021/06/13 06:40:05;;;;;;;5.47;2.83;;;;;;;;;;757863;184;918585;-71
2021/06/13 06:42:32;;;;;;;8.30;3.97;;;;;;;;;;757383;183;918750;-73
2021/06/13 06:44:57;;;;;;;9.77;3.07;;;;;;;;;;768283;183;816132;-71
2021/06/13 06:47:23;;;;;;;7.47;3.80;;;;;;;;;;760291;183;896507;-71
2021/06/13 06:49:49;;;;;;;8.03;3.30;;;;;;;;;;758534;182;919202;-72
2021/06/13 06:52:16;;;;;;;5.50;3.77;;;;;;;;;;757161;183;918379;-71
2021/06/13 06:54:41;;;;;;;9.13;3.00;;;;;;;;;;761829;184;816876;-72
2021/06/13 06:57:07;;;;;;;7.00;3.10;;;;;;;;;;760513;182;914580;-72
2021/06/13 06:59:32;;;;;;;5.30;2.90;;;;;;;;;;759173;182;919746;-71
2021/06/13 07:01:58;;;;;;;11.20;3.00;;;;;;;;;;767037;182;919438;-73
2021/06/13 07:04:24;;;;;;;7.47;3.63;;;;;;;;;;763881;181;917948;-73
2021/06/13 07:06:50;;;;;;;7.90;3.20;;;;;;;;;;758791;183;918742;-72
2021/06/13 07:09:16;;;;;;;5.93;3.20;;;;;;;;;;764262;182;917816;-72
2021/06/13 07:11:42;;;;;;;10.82;2.78;;;;;;;;;;761597;182;932477;-72
2021/06/13 07:14:07;;;;;;;5.83;2.70;;;;;;;;;;758856;182;919756;-74
2021/06/13 07:16:33;;;;;;;6.30;3.30;;;;;;;;;;766951;182;921797;-74
2021/06/13 07:18:59;;;;;;;14.13;3.30;;;;;;;;;;760417;183;919018;-74
2021/06/13 07:21:25;;;;;;;5.77;4.57;;;;;;;;;;760670;182;816553;-75
2021/06/13 07:23:51;;;;;;;7.17;2.90;;;;;;;;;;764660;182;807737;-74
2021/06/13 07:26:16;;;;;;;6.07;3.17;;;;;;;;;;766539;182;816388;-74
2021/06/13 07:28:42;;;;;;;9.57;3.47;;;;;;;;;;762861;182;883996;-79
2021/06/13 07:31:08;;;;;;;6.20;3.30;;;;;;;;;;756518;183;919121;-73
2021/06/13 07:33:34;;;;;;;9.93;2.70;;;;;;;;;;750077;186;919505;-72
2021/06/13 07:36:00;;;;;;;6.20;3.17;;;;;;;;;;744945;187;919190;-73
2021/06/13 07:38:26;;;;;;;5.10;2.83;;;;;;;;;;758449;183;943700;-72
2021/06/13 07:40:52;;;;;;;5.60;2.60;;;;;;;;;;766798;182;916557;-73
2021/06/13 07:43:17;;;;;;;8.13;2.90;;;;;;;;;;758706;182;919271;-71
2021/06/13 07:45:43;;;;;;;7.67;2.90;;;;;;;;;;758687;182;917284;-71
2021/06/13 07:48:09;;;;;;;7.50;3.80;;;;;;;;;;760345;182;919475;-71
2021/06/13 07:50:35;;;;;;;6.80;3.67;;;;;;;;;;765219;183;917404;-71
2021/06/13 07:53:01;;;;;;;4.33;2.70;;;;;;;;;;760895;183;919421;-71
2021/06/13 07:55:27;;;;;;;7.50;3.20;;;;;;;;;;758263;182;918318;-72
2021/06/13 07:57:53;;;;;;;7.00;2.93;;;;;;;;;;766739;182;918999;-72
2021/06/13 08:00:19;;;;;;;5.90;2.35;;;;;;;;;;758377;182;919433;-72
2021/06/13 08:02:45;;;;;;;5.57;3.63;;;;;;;;;;758297;182;918303;-73
2021/06/13 08:05:13;;;;;;;5.23;3.20;;;;;;;;;;764557;182;918256;-70
2021/06/13 08:07:37;;;;;;;6.07;3.07;;;;;;;;;;757537;183;919282;-73
2021/06/13 08:10:03;;;;;;;7.77;3.90;;;;;;;;;;757490;183;1018781;-73
2021/06/13 08:12:29;;;;;;;5.23;2.73;;;;;;;;;;759886;183;918995;-71
2021/06/13 08:14:55;;;;;;;5.05;2.87;;;;;;;;;;761852;182;918608;-72
2021/06/13 08:17:21;;;;;;;7.53;3.30;;;;;;;;;;764441;182;921550;-73
2021/06/13 08:19:47;;;;;;;7.82;3.55;;;;;;;;;;760526;182;918706;-71
2021/06/13 08:22:13;;;;;;;8.03;3.70;;;;;;;;;;769900;182;918648;-71
2021/06/13 08:24:38;;;;;;;5.70;2.80;;;;;;;;;;762147;183;919171;-73
2021/06/13 08:27:05;;;;;;;5.70;2.87;;;;;;;;;;757948;183;1021199;-73
2021/06/13 08:29:30;;;;;;;8.10;3.20;;;;;;;;;;767555;182;908642;-71
2021/06/13 08:31:56;;;;;;;4.40;2.40;;;;;;;;;;762672;182;1027971;-73
2021/06/13 08:34:22;;;;;;;5.70;3.60;;;;;;;;;;759128;183;959645;-71
2021/06/13 08:36:48;;;;;;;8.63;3.07;;;;;;;;;;768319;182;676026;-73
2021/06/13 08:39:14;;;;;;;7.13;3.23;;;;;;;;;;763859;182;853302;-73
2021/06/13 08:41:40;;;;;;;5.60;2.97;;;;;;;;;;762241;182;912574;-73
2021/06/13 08:44:06;;;;;;;6.93;2.63;;;;;;;;;;761812;182;876884;-71
2021/06/13 08:46:31;;;;;;;12.23;3.05;;;;;;;;;;764210;182;623858;-73
2021/06/13 08:48:57;;;;;;;7.90;3.07;;;;;;;;;;762461;182;635925;-76
2021/06/13 08:51:23;;;;;;;13.23;3.50;;;;;;;;;;763904;182;613579;-74
2021/06/13 08:53:50;;;;;;;3.90;2.60;;;;;;;;;;767627;184;627238;-73
2021/06/13 08:56:15;;;;;;;7.37;3.67;;;;;;;;;;762619;183;642419;-74
2021/06/13 08:58:41;;;;;;;7.50;3.30;;;;;;;;;;755669;184;919608;-73
2021/06/13 09:01:07;;;;;;;9.70;3.20;;;;;;;;;;759472;184;920098;-73
2021/06/13 09:03:32;;;;;;;13.77;3.20;;;;;;;;;;756123;184;918825;-71
2021/06/13 09:05:58;;;;;;;6.05;3.92;;;;;;;;;;747134;186;939278;-71
2021/06/13 09:08:24;;;;;;;5.10;3.00;;;;;;;;;;760299;183;919155;-71
2021/06/13 09:10:50;;;;;;;7.03;3.10;;;;;;;;;;759837;184;918985;-72
2021/06/13 09:13:16;;;;;;;7.47;4.37;;;;;;;;;;759313;183;919621;-72
2021/06/13 09:15:43;;;;;;;5.67;2.83;;;;;;;;;;762432;183;919123;-72
2021/06/13 09:18:09;;;;;;;5.73;2.70;;;;;;;;;;762078;183;919174;-70
2021/06/13 09:20:35;;;;;;;5.37;2.60;;;;;;;;;;759735;183;914262;-71
2021/06/13 09:23:05;;;;;;;7.03;2.23;;;;;;;;;;761690;183;920677;-72
2021/06/13 09:25:29;;;;;;;4.37;2.50;;;;;;;;;;765623;182;918566;-74
2021/06/13 09:28:05;;;;;;;4.50;2.70;;;;;;;;;;763779;182;920552;-71
2021/06/13 09:30:31;;;;;;;11.20;3.23;;;;;;;;;;764583;182;919299;-73
2021/06/13 09:33:03;;;;;;;6.37;2.70;;;;;;;;;;762896;182;917820;-74
2021/06/13 09:35:30;;;;;;;5.17;2.83;;;;;;;;;;762609;182;917344;-74
2021/06/13 09:38:00;;;;;;;6.37;3.85;;;;;;;;;;762592;184;919846;-72
2021/06/13 09:40:26;;;;;;;4.77;2.63;;;;;;;;;;760204;182;919048;-73
2021/06/13 09:42:52;;;;;;;4.80;3.63;;;;;;;;;;756855;184;919293;-74
2021/06/13 09:45:18;;;;;;;6.27;2.80;;;;;;;;;;767043;182;918552;-73
2021/06/13 09:47:44;;;;;;;5.73;2.37;;;;;;;;;;763843;182;918010;-74
2021/06/13 09:50:10;;;;;;;11.12;4.25;;;;;;;;;;761089;184;914201;-73
2021/06/13 09:52:36;;;;;;;5.47;2.93;;;;;;;;;;762527;182;915016;-74
2021/06/13 09:55:08;;;;;;;5.40;2.87;;;;;;;;;;756337;184;919364;-73
2021/06/13 09:57:33;;;;;;;7.43;3.03;;;;;;;;;;761809;183;918838;-74
2021/06/13 09:59:59;;;;;;;6.93;3.30;;;;;;;;;;759732;183;915274;-74
2021/06/13 10:02:25;;;;;;;7.60;3.40;;;;;;;;;;762681;182;914632;-73
2021/06/13 10:04:51;;;;;;;7.20;2.93;;;;;;;;;;759499;182;1016812;-76
2021/06/13 10:07:26;;;;;;;5.53;3.43;;;;;;;;;;759278;182;923396;-74
2021/06/13 10:09:50;;;;;;;6.33;3.80;;;;;;;;;;755006;183;917899;-71
2021/06/13 10:12:15;;;;;;;4.40;3.30;;;;;;;;;;767381;183;918343;-72
2021/06/13 10:14:41;;;;;;;6.10;2.70;;;;;;;;;;762613;182;918846;-73
2021/06/13 10:17:07;;;;;;;8.47;3.40;;;;;;;;;;762600;182;916439;-74
2021/06/13 10:19:36;;;;;;;5.20;2.50;;;;;;;;;;764023;184;918349;-70
2021/06/13 10:22:02;;;;;;;7.00;3.60;;;;;;;;;;758646;182;919197;-72
2021/06/13 10:24:28;;;;;;;3.93;2.93;;;;;;;;;;760780;182;918744;-74
2021/06/13 10:26:55;;;;;;;5.13;2.93;;;;;;;;;;759728;183;890768;-74
2021/06/13 10:29:20;;;;;;;7.00;2.63;;;;;;;;;;763240;182;883335;-78
2021/06/13 10:31:46;;;;;;;13.30;3.20;;;;;;;;;;763698;183;919244;-72
2021/06/13 10:34:12;;;;;;;4.80;3.07;;;;;;;;;;754928;183;919102;-71
2021/06/13 10:36:39;;;;;;;8.47;4.80;;;;;;;;;;764160;183;918592;-73
2021/06/13 10:39:04;;;;;;;5.97;2.87;;;;;;;;;;759961;183;808543;-75
2021/06/13 10:41:30;;;;;;;5.60;3.10;;;;;;;;;;757622;183;710746;-74
2021/06/13 10:43:57;;;;;;;9.50;4.33;;;;;;;;;;764965;183;912811;-73
2021/06/13 10:46:23;;;;;;;8.57;3.70;;;;;;;;;;762919;183;814154;-75
2021/06/13 10:48:50;;;;;;;8.97;3.20;;;;;;;;;;762029;182;914736;-76
2021/06/13 10:51:30;;;;;;;5.60;3.00;;;;;;;;;;761196;182;919522;-78
2021/06/13 10:53:56;;;;;;;8.63;3.60;;;;;;;;;;760309;183;918645;-73
2021/06/13 10:56:24;;;;;;;6.50;3.40;;;;;;;;;;758630;184;918969;-74
2021/06/13 10:58:50;;;;;;;4.10;3.00;;;;;;;;;;758704;182;920377;-74
2021/06/13 11:01:21;;;;;;;4.60;3.07;;;;;;;;;;759123;183;948442;-76
2021/06/13 11:03:52;;;;;;;11.70;3.33;;;;;;;;;;766944;182;815613;-74
2021/06/13 11:06:24;;;;;;;6.07;2.77;;;;;;;;;;762557;183;918622;-78
2021/06/13 11:08:56;;;;;;;5.57;3.10;;;;;;;;;;753119;183;957009;-78
2021/06/13 11:11:28;;;;;;;7.47;2.67;;;;;;;;;;753020;183;918763;-77
2021/06/13 11:13:53;;;;;;;5.35;2.80;;;;;;;;;;747596;186;902936;-77
2021/06/13 11:16:19;;;;;;;7.73;2.47;;;;;;;;;;753779;186;816510;-74
2021/06/13 11:18:45;;;;;;;4.10;2.40;;;;;;;;;;746938;187;817822;-74
2021/06/13 11:21:17;;;;;;;6.33;3.20;;;;;;;;;;746662;186;920277;-73
2021/06/13 11:23:43;;;;;;;4.63;2.33;;;;;;;;;;759472;183;861152;-74
2021/06/13 11:26:10;;;;;;;6.23;3.27;;;;;;;;;;764056;183;818843;-75
2021/06/13 11:28:49;;;;;;;6.17;3.37;;;;;;;;;;757137;184;916961;-73
2021/06/13 11:31:16;;;;;;;4.40;2.63;;;;;;;;;;765264;183;815610;-75
2021/06/13 11:33:44;;;;;;;5.33;2.93;;;;;;;;;;757732;183;818320;-75
2021/06/13 11:36:30;;;;;;;9.10;2.90;;;;;;;;;;757669;184;918858;-76
2021/06/13 11:39:17;;;;;;;4.83;2.80;;;;;;;;;;754170;186;820961;-74
2021/06/13 11:41:43;;;;;;;7.68;3.45;;;;;;;;;;761871;183;916308;-73
2021/06/13 11:44:09;;;;;;;6.70;3.20;;;;;;;;;;756983;184;916613;-74
2021/06/13 11:46:39;;;;;;;6.90;2.90;;;;;;;;;;760063;184;773728;-76
2021/06/13 11:49:05;;;;;;;7.80;2.80;;;;;;;;;;760580;181;915100;-73
2021/06/13 11:51:30;;;;;;;6.20;2.90;;;;;;;;;;770186;182;915357;-75
2021/06/13 11:54:11;;;;;;;7.82;3.03;;;;;;;;;;760807;182;1139146;-74
2021/06/13 11:56:39;;;;;;;7.33;2.47;;;;;;;;;;762493;182;919155;-74
2021/06/13 11:59:03;;;;;;;9.63;2.33;;;;;;;;;;754478;183;920346;-76
2021/06/13 12:01:32;;;;;;;4.47;2.47;;;;;;;;;;766983;182;845168;-77
2021/06/13 12:03:56;;;;;;;7.23;3.10;;;;;;;;;;766407;182;718844;-76
2021/06/13 12:06:21;;;;;;;8.33;3.30;;;;;;;;;;764278;183;622395;-73
2021/06/13 12:08:48;;;;;;;6.87;3.10;;;;;;;;;;751880;186;638304;-72
2021/06/13 12:11:19;;;;;;;3.73;2.43;;;;;;;;;;763080;180;632617;-72
2021/06/13 12:13:45;;;;;;;4.97;2.73;;;;;;;;;;762770;182;628768;-74
2021/06/13 12:16:14;;;;;;;9.57;3.50;;;;;;;;;;762874;183;662008;-75
2021/06/13 12:18:40;;;;;;;4.40;2.70;;;;;;;;;;765623;183;625727;-72
2021/06/13 12:21:06;;;;;;;6.30;2.93;;;;;;;;;;761427;183;634988;-74
2021/06/13 12:23:33;;;;;;;10.53;3.37;;;;;;;;;;764041;183;630716;-74
2021/06/13 12:28:30;;;;;;;3.93;2.77;;;;;;;;;;767417;183;902823;-76
2021/06/13 12:30:56;;;;;;;6.57;3.00;;;;;;;;;;754557;184;984396;-73
2021/06/13 12:33:25;;;;;;;9.03;3.13;;;;;;;;;;757848;183;1037920;-73
2021/06/13 12:35:48;;;;;;;5.17;2.40;;;;;;;;;;762738;183;917657;-72
2021/06/13 12:38:13;;;;;;;7.67;3.20;;;;;;;;;;765503;182;628511;-76
2021/06/13 12:40:40;;;;;;;6.13;2.80;;;;;;;;;;762382;183;628583;-73
2021/06/13 12:43:06;;;;;;;5.40;2.40;;;;;;;;;;760712;184;632922;-72
2021/06/13 12:45:32;;;;;;;5.40;2.40;;;;;;;;;;766381;181;624800;-72
2021/06/13 12:47:58;;;;;;;8.73;2.40;;;;;;;;;;764513;183;630604;-72
2021/06/13 12:50:26;;;;;;;6.43;2.93;;;;;;;;;;757663;183;918259;-78
2021/06/13 12:52:52;;;;;;;5.23;2.53;;;;;;;;;;760091;183;904535;-74
2021/06/13 12:55:18;;;;;;;4.93;2.60;;;;;;;;;;760882;183;701339;-71
2021/06/13 12:57:45;;;;;;;5.28;2.50;;;;;;;;;;759425;183;918613;-75
2021/06/13 13:00:11;;;;;;;5.07;2.33;;;;;;;;;;762787;184;618697;-75
2021/06/13 13:02:37;;;;;;;5.23;2.50;;;;;;;;;;764915;183;712077;-75
2021/06/13 13:05:02;;;;;;;7.70;2.80;;;;;;;;;;764252;182;617561;-76
2021/06/13 13:07:31;;;;;;;6.60;3.77;;;;;;;;;;761444;182;918117;-76
2021/06/13 13:10:04;;;;;;;4.83;2.67;;;;;;;;;;769634;182;639332;-77
2021/06/13 13:12:30;;;;;;;6.40;2.57;;;;;;;;;;766499;183;633110;-73
2021/06/13 13:15:01;;;;;;;3.63;2.27;;;;;;;;;;765366;183;629673;-75
2021/06/13 13:17:27;;;;;;;5.27;2.80;;;;;;;;;;761150;183;623449;-74
2021/06/13 13:19:53;;;;;;;3.27;1.90;;;;;;;;;;769925;182;940268;-72
2021/06/13 13:22:19;;;;;;;3.17;2.00;;;;;;;;;;763001;183;615765;-75
2021/06/13 13:24:45;;;;;;;13.63;2.73;;;;;;;;;;764890;183;652787;-75
2021/06/13 13:27:13;;;;;;;4.80;2.43;;;;;;;;;;765574;183;646633;-73
2021/06/13 13:29:40;;;;;;;4.57;2.80;;;;;;;;;;760769;183;816380;-75
2021/06/13 13:32:06;;;;;;;4.07;2.40;;;;;;;;;;763299;182;685844;-74
2021/06/13 13:34:32;;;;;;;7.57;2.67;;;;;;;;;;764106;182;815180;-72
2021/06/13 13:36:58;;;;;;;8.20;2.00;;;;;;;;;;768137;182;625268;-76
2021/06/13 13:39:24;;;;;;;4.47;2.10;;;;;;;;;;762385;182;623345;-76
2021/06/13 13:42:07;;;;;;;4.23;2.00;;;;;;;;;;757465;184;915470;-78
2021/06/13 13:44:30;;;;;;;6.50;2.10;;;;;;;;;;762376;182;802672;-77
2021/06/13 13:46:59;;;;;;;3.50;1.90;;;;;;;;;;769703;182;624152;-73
2021/06/13 13:49:25;;;;;;;3.10;1.83;;;;;;;;;;759008;183;811073;-77
2021/06/13 13:51:51;;;;;;;8.10;2.50;;;;;;;;;;756067;183;807903;-77
2021/06/13 13:54:23;;;;;;;3.70;2.43;;;;;;;;;;755401;186;616529;-72
2021/06/13 13:56:48;;;;;;;3.90;1.97;;;;;;;;;;768290;183;640411;-77
2021/06/13 13:59:14;;;;;;;5.70;2.93;;;;;;;;;;763731;183;619150;-76
2021/06/13 14:01:40;;;;;;;6.77;1.90;;;;;;;;;;762420;182;636479;-72
2021/06/13 14:04:06;;;;;;;6.67;2.93;;;;;;;;;;766922;182;625226;-77
2021/06/13 14:06:32;;;;;;;6.43;2.70;;;;;;;;;;765218;182;617625;-75
2021/06/13 14:08:58;;;;;;;3.93;2.30;;;;;;;;;;766161;182;651133;-74
2021/06/13 14:11:23;;;;;;;5.23;2.57;;;;;;;;;;767532;183;710398;-74
2021/06/13 14:13:50;;;;;;;6.03;2.50;;;;;;;;;;762113;183;638964;-74
2021/06/13 14:16:15;;;;;;;4.40;1.97;;;;;;;;;;760265;183;627242;-75
2021/06/13 14:18:41;;;;;;;4.80;2.20;;;;;;;;;;759589;183;631646;-78
2021/06/13 14:21:07;;;;;;;5.73;2.07;;;;;;;;;;750556;186;613093;-72
2021/06/13 14:23:34;;;;;;;3.77;2.13;;;;;;;;;;759543;182;641859;-75
2021/06/13 14:25:59;;;;;;;5.00;2.17;;;;;;;;;;764888;182;656225;-75